sensor_id;sensor_type;location;lat;lon;timestamp;pressure;altitude;pressure_sealevel;temperature;humidity
75692;BME280;64307;52.508;6.090;2023-02-28T00:00:33;103273.72;;;4.13;80.74
75692;BME280;64307;52.508;6.090;2023-02-28T00:02:58;103273.53;;;4.05;80.53
75692;BME280;64307;52.508;6.090;2023-02-28T00:05:26;103261.81;;;3.94;81.19
75692;BME280;64307;52.508;6.090;2023-02-28T00:07:52;103263.03;;;4.07;80.63
75692;BME280;64307;52.508;6.090;2023-02-28T00:10:22;103254.72;;;4.12;80.84
75692;BME280;64307;52.508;6.090;2023-02-28T00:12:50;103264.41;;;4.09;80.37
75692;BME280;64307;52.508;6.090;2023-02-28T00:15:15;103267.63;;;4.17;80.96
75692;BME280;64307;52.508;6.090;2023-02-28T00:17:41;103259.19;;;4.08;80.62
75692;BME280;64307;52.508;6.090;2023-02-28T00:20:07;103275.44;;;4.09;80.76
75692;BME280;64307;52.508;6.090;2023-02-28T00:22:44;103262.22;;;4.06;80.95
75692;BME280;64307;52.508;6.090;2023-02-28T00:25:12;103273.50;;;4.10;81.68
75692;BME280;64307;52.508;6.090;2023-02-28T00:27:38;103269.53;;;3.92;81.65
75692;BME280;64307;52.508;6.090;2023-02-28T00:30:06;103270.91;;;3.95;82.01
75692;BME280;64307;52.508;6.090;2023-02-28T00:32:32;103259.66;;;3.91;82.05
75692;BME280;64307;52.508;6.090;2023-02-28T00:34:57;103261.09;;;3.84;81.91
75692;BME280;64307;52.508;6.090;2023-02-28T00:37:23;103253.13;;;3.82;82.42
75692;BME280;64307;52.508;6.090;2023-02-28T00:39:48;103254.66;;;3.93;81.78
75692;BME280;64307;52.508;6.090;2023-02-28T00:42:13;103268.38;;;3.98;81.79
75692;BME280;64307;52.508;6.090;2023-02-28T00:44:39;103261.81;;;3.94;81.92
75692;BME280;64307;52.508;6.090;2023-02-28T00:47:04;103266.16;;;4.00;81.85
75692;BME280;64307;52.508;6.090;2023-02-28T00:49:30;103273.44;;;3.91;82.71
75692;BME280;64307;52.508;6.090;2023-02-28T00:51:55;103256.09;;;3.86;82.57
75692;BME280;64307;52.508;6.090;2023-02-28T00:54:22;103264.69;;;3.84;82.53
75692;BME280;64307;52.508;6.090;2023-02-28T00:56:48;103259.50;;;3.78;83.09
75692;BME280;64307;52.508;6.090;2023-02-28T00:59:15;103260.03;;;3.80;83.80
75692;BME280;64307;52.508;6.090;2023-02-28T01:01:42;103270.72;;;3.86;82.86
75692;BME280;64307;52.508;6.090;2023-02-28T01:04:08;103269.84;;;3.91;82.69
75692;BME280;64307;52.508;6.090;2023-02-28T01:06:33;103267.97;;;3.86;83.16
75692;BME280;64307;52.508;6.090;2023-02-28T01:08:59;103263.59;;;3.85;83.15
75692;BME280;64307;52.508;6.090;2023-02-28T01:11:25;103267.97;;;3.86;83.59
75692;BME280;64307;52.508;6.090;2023-02-28T01:13:51;103264.94;;;3.88;83.29
75692;BME280;64307;52.508;6.090;2023-02-28T01:16:17;103259.16;;;3.84;83.61
75692;BME280;64307;52.508;6.090;2023-02-28T01:18:43;103258.47;;;3.97;83.20
75692;BME280;64307;52.508;6.090;2023-02-28T01:21:12;103256.03;;;3.96;83.83
75692;BME280;64307;52.508;6.090;2023-02-28T01:23:39;103251.78;;;4.03;83.17
75692;BME280;64307;52.508;6.090;2023-02-28T01:26:08;103258.19;;;3.99;83.27
75692;BME280;64307;52.508;6.090;2023-02-28T01:28:34;103245.56;;;3.93;83.58
75692;BME280;64307;52.508;6.090;2023-02-28T01:31:00;103253.91;;;3.88;83.95
75692;BME280;64307;52.508;6.090;2023-02-28T01:33:25;103257.53;;;3.83;83.86
75692;BME280;64307;52.508;6.090;2023-02-28T01:36:19;103251.53;;;3.76;84.38
75692;BME280;64307;52.508;6.090;2023-02-28T01:38:43;103243.81;;;3.78;84.57
75692;BME280;64307;52.508;6.090;2023-02-28T01:41:15;103241.34;;;3.77;84.83
75692;BME280;64307;52.508;6.090;2023-02-28T01:46:10;103245.81;;;3.73;84.67
75692;BME280;64307;52.508;6.090;2023-02-28T01:48:39;103240.81;;;3.75;84.58
75692;BME280;64307;52.508;6.090;2023-02-28T01:51:15;103236.19;;;3.70;84.96
75692;BME280;64307;52.508;6.090;2023-02-28T01:53:46;103228.91;;;3.79;84.73
75692;BME280;64307;52.508;6.090;2023-02-28T01:56:17;103239.53;;;3.91;84.36
75692;BME280;64307;52.508;6.090;2023-02-28T01:58:48;103241.94;;;3.97;84.07
75692;BME280;64307;52.508;6.090;2023-02-28T02:01:14;103244.94;;;3.77;84.90
75692;BME280;64307;52.508;6.090;2023-02-28T02:04:01;103231.78;;;3.93;84.09
75692;BME280;64307;52.508;6.090;2023-02-28T02:06:31;103233.97;;;3.96;83.92
75692;BME280;64307;52.508;6.090;2023-02-28T02:08:59;103235.06;;;3.95;82.88
75692;BME280;64307;52.508;6.090;2023-02-28T02:11:25;103218.97;;;3.83;84.05
75692;BME280;64307;52.508;6.090;2023-02-28T02:13:58;103236.00;;;3.85;83.60
75692;BME280;64307;52.508;6.090;2023-02-28T02:25:35;103235.91;;;3.95;83.34
75692;BME280;64307;52.508;6.090;2023-02-28T02:36:33;103228.69;;;3.99;83.25
75692;BME280;64307;52.508;6.090;2023-02-28T02:39:14;103226.56;;;3.91;82.25
75692;BME280;64307;52.508;6.090;2023-02-28T02:42:02;103237.38;;;3.88;83.04
75692;BME280;64307;52.508;6.090;2023-02-28T02:45:04;103236.78;;;3.91;83.13
75692;BME280;64307;52.508;6.090;2023-02-28T02:47:33;103233.13;;;3.95;82.71
75692;BME280;64307;52.508;6.090;2023-02-28T02:50:01;103240.81;;;3.98;83.02
75692;BME280;64307;52.508;6.090;2023-02-28T02:52:46;103244.34;;;4.04;82.88
75692;BME280;64307;52.508;6.090;2023-02-28T02:55:14;103241.59;;;4.04;82.86
75692;BME280;64307;52.508;6.090;2023-02-28T02:57:49;103234.50;;;3.98;82.32
75692;BME280;64307;52.508;6.090;2023-02-28T03:00:20;103242.81;;;3.93;81.70
75692;BME280;64307;52.508;6.090;2023-02-28T03:02:49;103239.00;;;3.89;82.13
75692;BME280;64307;52.508;6.090;2023-02-28T03:05:25;103253.41;;;4.04;82.36
75692;BME280;64307;52.508;6.090;2023-02-28T03:07:51;103250.13;;;4.02;82.84
75692;BME280;64307;52.508;6.090;2023-02-28T03:15:48;103235.06;;;3.95;80.49
75692;BME280;64307;52.508;6.090;2023-02-28T03:18:54;103250.13;;;4.02;81.61
75692;BME280;64307;52.508;6.090;2023-02-28T03:21:46;103241.63;;;3.99;81.72
75692;BME280;64307;52.508;6.090;2023-02-28T03:27:08;103242.16;;;3.77;83.09
75692;BME280;64307;52.508;6.090;2023-02-28T03:29:37;103235.00;;;3.76;82.52
75692;BME280;64307;52.508;6.090;2023-02-28T03:32:12;103242.16;;;3.77;84.17
75692;BME280;64307;52.508;6.090;2023-02-28T03:34:51;103237.22;;;3.74;83.72
75692;BME280;64307;52.508;6.090;2023-02-28T03:37:22;103242.28;;;3.67;84.05
75692;BME280;64307;52.508;6.090;2023-02-28T03:40:01;103239.22;;;3.69;84.79
75692;BME280;64307;52.508;6.090;2023-02-28T03:42:34;103247.31;;;3.60;84.88
75692;BME280;64307;52.508;6.090;2023-02-28T03:45:04;103252.59;;;3.57;85.58
75692;BME280;64307;52.508;6.090;2023-02-28T03:47:39;103250.72;;;3.47;85.59
75692;BME280;64307;52.508;6.090;2023-02-28T03:50:39;103254.09;;;3.44;86.09
75692;BME280;64307;52.508;6.090;2023-02-28T03:53:35;103249.34;;;3.50;87.28
75692;BME280;64307;52.508;6.090;2023-02-28T03:56:07;103253.22;;;3.49;87.68
75692;BME280;64307;52.508;6.090;2023-02-28T03:58:49;103246.72;;;3.34;88.49
75692;BME280;64307;52.508;6.090;2023-02-28T04:03:49;103243.78;;;3.26;88.87
75692;BME280;64307;52.508;6.090;2023-02-28T04:06:18;103241.50;;;3.33;89.37
75692;BME280;64307;52.508;6.090;2023-02-28T04:08:43;103231.63;;;3.32;89.36
75692;BME280;64307;52.508;6.090;2023-02-28T04:11:38;103239.19;;;3.45;87.85
75692;BME280;64307;52.508;6.090;2023-02-28T04:14:06;103242.09;;;3.30;87.34
75692;BME280;64307;52.508;6.090;2023-02-28T04:16:34;103242.00;;;3.40;88.71
75692;BME280;64307;52.508;6.090;2023-02-28T04:19:00;103234.31;;;3.37;88.05
75692;BME280;64307;52.508;6.090;2023-02-28T04:21:31;103238.91;;;3.18;86.55
75692;BME280;64307;52.508;6.090;2023-02-28T04:23:57;103236.38;;;3.21;87.22
75692;BME280;64307;52.508;6.090;2023-02-28T04:26:30;103239.44;;;3.20;89.00
75692;BME280;64307;52.508;6.090;2023-02-28T04:28:58;103234.25;;;3.13;84.98
75692;BME280;64307;52.508;6.090;2023-02-28T04:31:23;103239.88;;;3.32;84.71
75692;BME280;64307;52.508;6.090;2023-02-28T04:33:49;103227.31;;;3.21;86.16
75692;BME280;64307;52.508;6.090;2023-02-28T04:36:14;103228.38;;;3.25;82.35
75692;BME280;64307;52.508;6.090;2023-02-28T04:38:43;103233.34;;;3.23;84.49
75692;BME280;64307;52.508;6.090;2023-02-28T04:41:08;103225.69;;;3.15;82.46
75692;BME280;64307;52.508;6.090;2023-02-28T04:43:35;103238.50;;;2.96;80.05
75692;BME280;64307;52.508;6.090;2023-02-28T04:46:01;103245.84;;;3.10;79.07
75692;BME280;64307;52.508;6.090;2023-02-28T04:48:32;103240.16;;;2.97;76.87
75692;BME280;64307;52.508;6.090;2023-02-28T04:51:01;103244.47;;;3.08;76.61
75692;BME280;64307;52.508;6.090;2023-02-28T04:53:27;103235.94;;;3.09;75.28
75692;BME280;64307;52.508;6.090;2023-02-28T04:55:54;103250.53;;;3.10;76.89
75692;BME280;64307;52.508;6.090;2023-02-28T04:58:19;103256.81;;;3.15;77.28
75692;BME280;64307;52.508;6.090;2023-02-28T05:00:44;103254.09;;;3.10;76.72
75692;BME280;64307;52.508;6.090;2023-02-28T05:03:10;103252.41;;;3.14;77.77
75692;BME280;64307;52.508;6.090;2023-02-28T05:05:35;103251.63;;;3.09;77.22
75692;BME280;64307;52.508;6.090;2023-02-28T05:08:00;103260.06;;;2.89;78.35
75692;BME280;64307;52.508;6.090;2023-02-28T05:10:26;103246.28;;;2.89;80.19
75692;BME280;64307;52.508;6.090;2023-02-28T05:12:51;103240.03;;;2.78;77.35
75692;BME280;64307;52.508;6.090;2023-02-28T05:15:16;103252.88;;;2.93;78.56
75692;BME280;64307;52.508;6.090;2023-02-28T05:17:42;103255.47;;;2.74;79.71
75692;BME280;64307;52.508;6.090;2023-02-28T05:20:09;103252.41;;;2.81;81.26
75692;BME280;64307;52.508;6.090;2023-02-28T05:22:39;103256.50;;;2.83;81.91
75692;BME280;64307;52.508;6.090;2023-02-28T05:25:05;103257.84;;;2.91;82.05
75692;BME280;64307;52.508;6.090;2023-02-28T05:27:32;103255.97;;;2.81;81.06
75692;BME280;64307;52.508;6.090;2023-02-28T05:29:58;103257.31;;;2.84;82.10
75692;BME280;64307;52.508;6.090;2023-02-28T05:32:24;103232.06;;;2.77;81.74
75692;BME280;64307;52.508;6.090;2023-02-28T05:34:50;103258.69;;;2.86;81.73
75692;BME280;64307;52.508;6.090;2023-02-28T05:37:15;103252.94;;;2.83;81.60
75692;BME280;64307;52.508;6.090;2023-02-28T05:39:42;103258.13;;;2.89;81.88
75692;BME280;64307;52.508;6.090;2023-02-28T05:42:09;103255.69;;;2.83;82.45
75692;BME280;64307;52.508;6.090;2023-02-28T05:44:35;103258.44;;;2.83;82.83
75692;BME280;64307;52.508;6.090;2023-02-28T05:47:01;103261.75;;;2.80;84.23
75692;BME280;64307;52.508;6.090;2023-02-28T05:49:26;103256.84;;;2.72;85.43
75692;BME280;64307;52.508;6.090;2023-02-28T05:51:53;103254.47;;;2.55;86.68
75692;BME280;64307;52.508;6.090;2023-02-28T05:54:18;103260.53;;;2.57;87.01
75692;BME280;64307;52.508;6.090;2023-02-28T05:56:44;103252.00;;;2.59;87.24
75692;BME280;64307;52.508;6.090;2023-02-28T05:59:11;103251.34;;;2.72;85.87
75692;BME280;64307;52.508;6.090;2023-02-28T06:01:39;103245.31;;;2.70;86.35
75692;BME280;64307;52.508;6.090;2023-02-28T06:04:07;103256.31;;;2.70;86.64
75692;BME280;64307;52.508;6.090;2023-02-28T06:06:33;103257.16;;;2.65;86.19
75692;BME280;64307;52.508;6.090;2023-02-28T06:09:05;103250.06;;;2.59;86.54
75692;BME280;64307;52.508;6.090;2023-02-28T06:11:30;103252.56;;;2.56;86.77
75692;BME280;64307;52.508;6.090;2023-02-28T06:13:57;103248.75;;;2.46;87.21
75692;BME280;64307;52.508;6.090;2023-02-28T06:16:25;103262.47;;;2.52;87.21
75692;BME280;64307;52.508;6.090;2023-02-28T06:18:50;103259.97;;;2.55;87.43
75692;BME280;64307;52.508;6.090;2023-02-28T06:21:15;103258.88;;;2.56;86.22
75692;BME280;64307;52.508;6.090;2023-02-28T06:23:42;103262.19;;;2.58;86.13
75692;BME280;64307;52.508;6.090;2023-02-28T06:26:07;103270.38;;;2.63;84.52
75692;BME280;64307;52.508;6.090;2023-02-28T06:28:33;103267.94;;;2.62;85.89
75692;BME280;64307;52.508;6.090;2023-02-28T06:30:58;103268.50;;;2.59;85.98
75692;BME280;64307;52.508;6.090;2023-02-28T06:33:24;103265.53;;;2.50;86.17
75692;BME280;64307;52.508;6.090;2023-02-28T06:35:51;103273.47;;;2.52;85.61
75692;BME280;64307;52.508;6.090;2023-02-28T06:38:16;103266.59;;;2.54;86.19
75692;BME280;64307;52.508;6.090;2023-02-28T06:40:43;103279.78;;;2.57;86.35
75692;BME280;64307;52.508;6.090;2023-02-28T06:43:08;103275.63;;;2.60;86.50
75692;BME280;64307;52.508;6.090;2023-02-28T06:45:34;103271.47;;;2.67;86.25
75692;BME280;64307;52.508;6.090;2023-02-28T06:47:59;103282.78;;;2.61;85.04
75692;BME280;64307;52.508;6.090;2023-02-28T06:50:25;103271.50;;;2.62;85.58
75692;BME280;64307;52.508;6.090;2023-02-28T06:52:52;103280.53;;;2.73;85.24
75692;BME280;64307;52.508;6.090;2023-02-28T06:55:19;103288.72;;;2.83;85.40
75692;BME280;64307;52.508;6.090;2023-02-28T06:57:44;103281.06;;;2.70;85.35
75692;BME280;64307;52.508;6.090;2023-02-28T07:00:10;103294.06;;;2.64;85.70
75692;BME280;64307;52.508;6.090;2023-02-28T07:02:36;103296.56;;;2.61;85.57
75692;BME280;64307;52.508;6.090;2023-02-28T07:05:03;103296.56;;;2.61;86.84
75692;BME280;64307;52.508;6.090;2023-02-28T07:07:29;103304.44;;;2.72;86.39
75692;BME280;64307;52.508;6.090;2023-02-28T07:09:54;103282.16;;;2.74;86.24
75692;BME280;64307;52.508;6.090;2023-02-28T07:12:19;103297.19;;;2.91;84.71
75692;BME280;64307;52.508;6.090;2023-02-28T07:14:44;103298.88;;;2.87;84.32
75692;BME280;64307;52.508;6.090;2023-02-28T07:17:10;103308.88;;;2.68;85.14
75692;BME280;64307;52.508;6.090;2023-02-28T07:19:38;103293.69;;;2.76;85.64
75692;BME280;64307;52.508;6.090;2023-02-28T07:22:03;103285.34;;;2.91;83.52
75692;BME280;64307;52.508;6.090;2023-02-28T07:24:30;103295.22;;;2.97;84.37
75692;BME280;64307;52.508;6.090;2023-02-28T07:26:55;103303.19;;;2.98;84.78
75692;BME280;64307;52.508;6.090;2023-02-28T07:29:21;103304.09;;;2.84;84.20
75692;BME280;64307;52.508;6.090;2023-02-28T07:31:46;103310.44;;;2.79;84.40
75692;BME280;64307;52.508;6.090;2023-02-28T07:34:12;103321.72;;;2.83;84.91
75692;BME280;64307;52.508;6.090;2023-02-28T07:36:37;103317.53;;;2.95;84.26
75692;BME280;64307;52.508;6.090;2023-02-28T07:39:03;103319.75;;;2.93;84.26
75692;BME280;64307;52.508;6.090;2023-02-28T07:41:29;103318.91;;;2.93;83.33
75692;BME280;64307;52.508;6.090;2023-02-28T07:43:56;103312.75;;;3.06;83.48
75692;BME280;64307;52.508;6.090;2023-02-28T07:46:22;103311.59;;;3.17;83.39
75692;BME280;64307;52.508;6.090;2023-02-28T07:48:48;103314.84;;;3.24;83.16
75692;BME280;64307;52.508;6.090;2023-02-28T07:51:13;103303.97;;;3.38;81.72
75692;BME280;64307;52.508;6.090;2023-02-28T07:53:39;103310.22;;;3.48;82.44
75692;BME280;64307;52.508;6.090;2023-02-28T07:56:05;103309.91;;;3.55;81.65
75692;BME280;64307;52.508;6.090;2023-02-28T07:58:31;103327.00;;;3.52;81.51
75692;BME280;64307;52.508;6.090;2023-02-28T08:00:56;103315.66;;;3.58;80.37
75692;BME280;64307;52.508;6.090;2023-02-28T08:03:23;103302.19;;;3.80;80.66
75692;BME280;64307;52.508;6.090;2023-02-28T08:05:49;103305.97;;;4.13;79.73
75692;BME280;64307;52.508;6.090;2023-02-28T08:08:16;103296.47;;;4.24;78.10
75692;BME280;64307;52.508;6.090;2023-02-28T08:10:43;103321.13;;;4.15;78.99
75692;BME280;64307;52.508;6.090;2023-02-28T08:13:08;103308.88;;;4.27;78.10
75692;BME280;64307;52.508;6.090;2023-02-28T08:15:34;103316.59;;;4.48;77.86
75692;BME280;64307;52.508;6.090;2023-02-28T08:17:59;103322.59;;;4.32;78.58
75692;BME280;64307;52.508;6.090;2023-02-28T08:20:25;103321.41;;;4.38;77.83
75692;BME280;64307;52.508;6.090;2023-02-28T08:22:51;103323.16;;;4.52;77.65
75692;BME280;64307;52.508;6.090;2023-02-28T08:25:16;103325.75;;;5.88;74.65
75692;BME280;64307;52.508;6.090;2023-02-28T08:27:42;103319.13;;;8.34;64.08
75692;BME280;64307;52.508;6.090;2023-02-28T08:30:10;103316.25;;;11.83;55.61
75692;BME280;64307;52.508;6.090;2023-02-28T08:32:36;103310.09;;;13.10;48.59
75692;BME280;64307;52.508;6.090;2023-02-28T08:35:02;103318.25;;;13.16;48.31
75692;BME280;64307;52.508;6.090;2023-02-28T08:37:28;103315.91;;;11.11;51.57
75692;BME280;64307;52.508;6.090;2023-02-28T08:39:53;103320.53;;;11.07;52.46
75692;BME280;64307;52.508;6.090;2023-02-28T08:42:18;103328.91;;;8.87;56.82
75692;BME280;64307;52.508;6.090;2023-02-28T08:44:43;103333.34;;;9.05;57.13
75692;BME280;64307;52.508;6.090;2023-02-28T08:47:09;103333.19;;;10.25;54.77
75692;BME280;64307;52.508;6.090;2023-02-28T08:49:34;103320.31;;;10.41;50.94
75692;BME280;64307;52.508;6.090;2023-02-28T08:51:59;103316.53;;;12.63;45.89
75692;BME280;64307;52.508;6.090;2023-02-28T08:54:25;103328.41;;;8.85;51.22
75692;BME280;64307;52.508;6.090;2023-02-28T08:56:51;103325.50;;;10.51;49.70
75692;BME280;64307;52.508;6.090;2023-02-28T08:59:16;103316.88;;;10.94;46.83
75692;BME280;64307;52.508;6.090;2023-02-28T09:01:42;103324.38;;;11.55;42.42
75692;BME280;64307;52.508;6.090;2023-02-28T09:04:09;103324.13;;;12.26;43.21
75692;BME280;64307;52.508;6.090;2023-02-28T09:06:35;103326.84;;;11.78;43.89
75692;BME280;64307;52.508;6.090;2023-02-28T09:09:01;103320.94;;;14.26;38.93
75692;BME280;64307;52.508;6.090;2023-02-28T09:11:27;103314.50;;;15.45;36.41
75692;BME280;64307;52.508;6.090;2023-02-28T09:13:53;103323.44;;;16.38;33.38
75692;BME280;64307;52.508;6.090;2023-02-28T09:16:18;103324.16;;;16.54;33.31
75692;BME280;64307;52.508;6.090;2023-02-28T09:18:44;103318.22;;;15.49;33.54
75692;BME280;64307;52.508;6.090;2023-02-28T09:21:12;103323.72;;;16.78;32.11
75692;BME280;64307;52.508;6.090;2023-02-28T09:23:40;103325.66;;;18.00;29.49
75692;BME280;64307;52.508;6.090;2023-02-28T09:26:05;103322.63;;;18.59;26.87
75692;BME280;64307;52.508;6.090;2023-02-28T09:28:31;103318.19;;;17.11;27.51
75692;BME280;64307;52.508;6.090;2023-02-28T09:30:56;103333.41;;;11.40;39.89
75692;BME280;64307;52.508;6.090;2023-02-28T09:33:25;103332.84;;;12.24;34.91
75692;BME280;64307;52.508;6.090;2023-02-28T09:35:58;103318.09;;;16.52;27.79
75692;BME280;64307;52.508;6.090;2023-02-28T09:38:24;103313.41;;;18.22;22.46
75692;BME280;64307;52.508;6.090;2023-02-28T09:40:55;103328.78;;;18.79;21.24
75692;BME280;64307;52.508;6.090;2023-02-28T09:43:23;103325.66;;;17.60;22.03
75692;BME280;64307;52.508;6.090;2023-02-28T09:46:02;103322.94;;;18.07;21.67
75692;BME280;64307;52.508;6.090;2023-02-28T09:48:38;103323.88;;;18.69;20.37
75692;BME280;64307;52.508;6.090;2023-02-28T09:53:37;103321.00;;;17.78;21.20
75692;BME280;64307;52.508;6.090;2023-02-28T09:56:15;103317.59;;;20.07;20.32
75692;BME280;64307;52.508;6.090;2023-02-28T09:58:50;103329.44;;;16.85;22.46
75692;BME280;64307;52.508;6.090;2023-02-28T10:01:29;103332.59;;;16.09;24.92
75692;BME280;64307;52.508;6.090;2023-02-28T10:06:28;103318.78;;;16.98;23.56
75692;BME280;64307;52.508;6.090;2023-02-28T10:09:01;103311.97;;;17.98;22.39
75692;BME280;64307;52.508;6.090;2023-02-28T10:11:29;103309.47;;;20.94;19.38
75692;BME280;64307;52.508;6.090;2023-02-28T10:24:39;103319.97;;;17.93;20.94
75692;BME280;64307;52.508;6.090;2023-02-28T10:27:25;103327.53;;;18.26;20.99
75692;BME280;64307;52.508;6.090;2023-02-28T10:29:52;103325.19;;;15.21;23.82
75692;BME280;64307;52.508;6.090;2023-02-28T10:32:21;103310.31;;;15.39;23.54
75692;BME280;64307;52.508;6.090;2023-02-28T10:34:53;103313.97;;;16.98;22.80
75692;BME280;64307;52.508;6.090;2023-02-28T10:37:21;103300.63;;;20.67;19.59
75692;BME280;64307;52.508;6.090;2023-02-28T10:39:48;103307.34;;;16.35;22.49
75692;BME280;64307;52.508;6.090;2023-02-28T10:42:29;103315.34;;;15.11;23.51
75692;BME280;64307;52.508;6.090;2023-02-28T10:45:12;103303.53;;;15.21;24.31
75692;BME280;64307;52.508;6.090;2023-02-28T10:48:01;103306.22;;;16.17;23.03
75692;BME280;64307;52.508;6.090;2023-02-28T10:50:32;103282.53;;;15.15;23.94
75692;BME280;64307;52.508;6.090;2023-02-28T10:56:06;103291.63;;;14.24;25.13
75692;BME280;64307;52.508;6.090;2023-02-28T10:58:57;103317.03;;;13.29;26.15
75692;BME280;64307;52.508;6.090;2023-02-28T11:01:34;103314.84;;;11.57;29.36
75692;BME280;64307;52.508;6.090;2023-02-28T11:04:02;103304.09;;;12.12;29.39
75692;BME280;64307;52.508;6.090;2023-02-28T11:06:33;103309.97;;;11.33;30.91
75692;BME280;64307;52.508;6.090;2023-02-28T11:09:56;103304.22;;;10.76;30.03
75692;BME280;64307;52.508;6.090;2023-02-28T11:12:06;103306.50;;;11.89;30.37
75692;BME280;64307;52.508;6.090;2023-02-28T11:14:57;103290.03;;;10.90;30.45
75692;BME280;64307;52.508;6.090;2023-02-28T11:17:26;103300.78;;;11.20;30.62
75692;BME280;64307;52.508;6.090;2023-02-28T11:19:55;103285.94;;;11.08;33.00
75692;BME280;64307;52.508;6.090;2023-02-28T11:22:25;103282.03;;;11.74;30.40
75692;BME280;64307;52.508;6.090;2023-02-28T11:24:55;103284.53;;;10.23;32.94
75692;BME280;64307;52.508;6.090;2023-02-28T11:29:56;103282.66;;;11.59;31.87
75692;BME280;64307;52.508;6.090;2023-02-28T11:32:24;103276.50;;;12.34;30.37
75692;BME280;64307;52.508;6.090;2023-02-28T11:37:50;103276.56;;;10.71;32.52
75692;BME280;64307;52.508;6.090;2023-02-28T11:51:19;103275.44;;;8.73;36.43
75692;BME280;64307;52.508;6.090;2023-02-28T11:53:56;103276.06;;;9.56;34.61
75692;BME280;64307;52.508;6.090;2023-02-28T11:56:35;103272.22;;;9.77;34.93
75692;BME280;64307;52.508;6.090;2023-02-28T12:04:52;103267.34;;;9.74;34.87
75692;BME280;64307;52.508;6.090;2023-02-28T12:07:47;103262.81;;;10.08;33.45
75692;BME280;64307;52.508;6.090;2023-02-28T12:10:36;103251.22;;;11.17;32.61
75692;BME280;64307;52.508;6.090;2023-02-28T12:13:15;103261.84;;;10.62;33.59
75692;BME280;64307;52.508;6.090;2023-02-28T12:26:51;103247.03;;;9.82;34.11
75692;BME280;64307;52.508;6.090;2023-02-28T12:29:25;103241.81;;;9.72;34.62
75692;BME280;64307;52.508;6.090;2023-02-28T12:34:37;103245.53;;;8.87;35.82
75692;BME280;64307;52.508;6.090;2023-02-28T12:37:10;103229.03;;;8.99;36.13
75692;BME280;64307;52.508;6.090;2023-02-28T12:39:45;103228.38;;;10.41;35.88
75692;BME280;64307;52.508;6.090;2023-02-28T12:42:45;103243.16;;;9.66;35.38
75692;BME280;64307;52.508;6.090;2023-02-28T12:47:51;103243.44;;;9.73;35.94
75692;BME280;64307;52.508;6.090;2023-02-28T12:50:18;103224.75;;;9.82;36.46
75692;BME280;64307;52.508;6.090;2023-02-28T12:53:03;103239.94;;;9.39;37.60
75692;BME280;64307;52.508;6.090;2023-02-28T12:55:49;103223.97;;;8.67;37.84
75692;BME280;64307;52.508;6.090;2023-02-28T12:58:37;103223.59;;;9.37;38.21
75692;BME280;64307;52.508;6.090;2023-02-28T13:03:52;103218.59;;;9.05;37.34
75692;BME280;64307;52.508;6.090;2023-02-28T13:06:45;103218.38;;;9.19;38.00
75692;BME280;64307;52.508;6.090;2023-02-28T13:09:16;103213.19;;;8.74;38.09
75692;BME280;64307;52.508;6.090;2023-02-28T13:11:46;103214.31;;;8.39;37.64
75692;BME280;64307;52.508;6.090;2023-02-28T13:14:36;103207.63;;;8.66;38.03
75692;BME280;64307;52.508;6.090;2023-02-28T13:17:11;103191.88;;;8.18;40.11
75692;BME280;64307;52.508;6.090;2023-02-28T13:28:12;103201.25;;;8.48;40.02
75692;BME280;64307;52.508;6.090;2023-02-28T13:33:27;103203.09;;;8.05;40.88
75692;BME280;64307;52.508;6.090;2023-02-28T13:49:28;103182.47;;;7.50;39.91
75692;BME280;64307;52.508;6.090;2023-02-28T13:57:42;103187.78;;;7.68;38.84
75692;BME280;64307;52.508;6.090;2023-02-28T14:06:10;103186.91;;;7.51;39.67
75692;BME280;64307;52.508;6.090;2023-02-28T14:09:00;103181.66;;;7.88;39.63
75692;BME280;64307;52.508;6.090;2023-02-28T14:11:39;103183.56;;;7.71;39.50
75692;BME280;64307;52.508;6.090;2023-02-28T14:14:07;103182.31;;;7.85;40.28
75692;BME280;64307;52.508;6.090;2023-02-28T14:16:41;103182.25;;;7.37;40.12
75692;BME280;64307;52.508;6.090;2023-02-28T14:19:14;103170.53;;;7.40;41.65
75692;BME280;64307;52.508;6.090;2023-02-28T14:22:17;103172.59;;;7.57;40.03
75692;BME280;64307;52.508;6.090;2023-02-28T14:27:48;103170.94;;;7.56;40.96
75692;BME280;64307;52.508;6.090;2023-02-28T14:30:42;103168.31;;;7.60;41.32
75692;BME280;64307;52.508;6.090;2023-02-28T14:33:23;103177.09;;;7.44;41.29
75692;BME280;64307;52.508;6.090;2023-02-28T14:38:40;103175.47;;;7.52;40.85
75692;BME280;64307;52.508;6.090;2023-02-28T14:41:16;103166.94;;;7.79;42.24
75692;BME280;64307;52.508;6.090;2023-02-28T14:43:53;103150.75;;;7.33;42.42
75692;BME280;64307;52.508;6.090;2023-02-28T14:46:19;103173.16;;;7.45;42.55
75692;BME280;64307;52.508;6.090;2023-02-28T14:48:47;103167.13;;;7.43;43.04
75692;BME280;64307;52.508;6.090;2023-02-28T14:51:18;103171.59;;;7.62;42.59
75692;BME280;64307;52.508;6.090;2023-02-28T14:53:49;103172.41;;;7.62;42.03
75692;BME280;64307;52.508;6.090;2023-02-28T14:56:38;103168.28;;;7.20;42.43
75692;BME280;64307;52.508;6.090;2023-02-28T14:59:05;103171.25;;;7.55;42.81
75692;BME280;64307;52.508;6.090;2023-02-28T15:01:46;103164.38;;;7.52;41.74
75692;BME280;64307;52.508;6.090;2023-02-28T15:04:20;103167.53;;;7.59;42.06
75692;BME280;64307;52.508;6.090;2023-02-28T15:07:06;103175.88;;;7.28;42.12
75692;BME280;64307;52.508;6.090;2023-02-28T15:09:32;103185.44;;;7.22;41.82
75692;BME280;64307;52.508;6.090;2023-02-28T15:11:57;103170.63;;;7.27;42.12
75692;BME280;64307;52.508;6.090;2023-02-28T15:14:25;103179.09;;;7.22;42.91
75692;BME280;64307;52.508;6.090;2023-02-28T15:16:58;103165.84;;;7.19;43.14
75692;BME280;64307;52.508;6.090;2023-02-28T15:19:30;103153.63;;;7.20;43.19
75692;BME280;64307;52.508;6.090;2023-02-28T15:22:04;103160.13;;;7.15;43.50
75692;BME280;64307;52.508;6.090;2023-02-28T15:24:37;103152.75;;;7.11;43.74
75692;BME280;64307;52.508;6.090;2023-02-28T15:27:06;103156.34;;;7.11;43.87